Time;durP1;ratioP1;P1;durP2;ratioP2;P2;SDS_P1;SDS_P2;PMS_P1;PMS_P2;Temp;Humidity;BMP_temperature;BMP_pressure;BME280_temperature;BME280_humidity;BME280_pressure;Samples;Min_cycle;Max_cycle;Signal;HPM_P1;HPM_P2
2022/06/08 00:01:42;;;;;;;;;;;22.70;68.70;;;;;;5013740;28;19913;-73
2022/06/08 00:04:09;;;;;;;;;;;22.80;68.80;;;;;;5013506;28;19917;-73
2022/06/08 00:06:35;;;;;;;;;;;22.70;68.60;;;;;;5012968;28;19905;-73
2022/06/08 00:09:01;;;;;;;;;;;22.70;69.00;;;;;;5012329;28;19909;-72
2022/06/08 00:11:26;;;;;;;;;;;22.70;69.30;;;;;;5014604;28;19917;-72
2022/06/08 00:13:52;;;;;;;;;;;22.70;69.30;;;;;;5014792;28;19924;-73
2022/06/08 00:16:18;;;;;;;;;;;22.80;69.00;;;;;;5011857;28;19961;-72
2022/06/08 00:18:44;;;;;;;;;;;22.70;68.90;;;;;;5014103;28;19964;-72
2022/06/08 00:21:11;;;;;;;;;;;22.70;68.90;;;;;;5012953;28;20011;-72
2022/06/08 00:23:37;;;;;;;;;;;22.60;68.90;;;;;;5014562;28;20272;-72
2022/06/08 00:26:03;;;;;;;;;;;22.60;68.80;;;;;;5014606;28;19909;-72
2022/06/08 00:28:30;;;;;;;;;;;22.50;68.80;;;;;;5012248;28;19976;-72
2022/06/08 00:30:55;;;;;;;;;;;22.50;69.10;;;;;;5014367;28;19906;-72
2022/06/08 00:33:21;;;;;;;;;;;22.60;69.40;;;;;;5014166;28;20012;-71
2022/06/08 00:35:46;;;;;;;;;;;22.60;69.60;;;;;;5013019;28;19914;-72
2022/06/08 00:38:12;;;;;;;;;;;22.50;69.60;;;;;;5013025;28;19924;-72
2022/06/08 00:40:50;;;;;;;;;;;22.50;69.70;;;;;;5013100;28;19964;-72
2022/06/08 00:43:16;;;;;;;;;;;22.60;69.40;;;;;;5008138;28;19960;-71
2022/06/08 00:45:41;;;;;;;;;;;22.50;69.40;;;;;;5011853;28;19910;-71
2022/06/08 00:48:07;;;;;;;;;;;22.60;69.80;;;;;;5012571;28;19910;-71
2022/06/08 00:50:41;;;;;;;;;;;22.60;69.90;;;;;;5014327;28;19909;-72
2022/06/08 00:53:07;;;;;;;;;;;22.60;69.90;;;;;;5014673;28;20322;-72
2022/06/08 00:55:35;;;;;;;;;;;22.50;70.00;;;;;;5012883;28;19905;-72
2022/06/08 00:58:03;;;;;;;;;;;22.50;70.20;;;;;;5011668;28;19905;-72
2022/06/08 01:00:30;;;;;;;;;;;22.50;70.40;;;;;;5014303;28;19913;-71
2022/06/08 01:02:56;;;;;;;;;;;22.50;70.60;;;;;;5013688;28;20395;-72
2022/06/08 01:05:33;;;;;;;;;;;22.40;70.70;;;;;;5013361;28;20028;-72
2022/06/08 01:08:01;;;;;;;;;;;22.40;71.40;;;;;;5012732;28;19914;-72
2022/06/08 01:10:28;;;;;;;;;;;22.50;71.50;;;;;;5012672;28;19975;-72
2022/06/08 01:12:56;;;;;;;;;;;22.40;70.50;;;;;;5010334;28;19956;-72
2022/06/08 01:15:23;;;;;;;;;;;22.40;70.50;;;;;;5012685;28;19909;-72
2022/06/08 01:17:49;;;;;;;;;;;22.40;70.30;;;;;;5014848;28;19941;-72
2022/06/08 01:20:15;;;;;;;;;;;22.30;70.40;;;;;;5017171;28;19961;-72
2022/06/08 01:22:40;;;;;;;;;;;22.20;70.90;;;;;;5015798;28;19917;-72
2022/06/08 01:25:07;;;;;;;;;;;21.80;71.60;;;;;;5015691;28;19912;-72
2022/06/08 01:27:41;;;;;;;;;;;21.70;72.30;;;;;;5017021;28;20047;-72
2022/06/08 01:30:21;;;;;;;;;;;21.70;72.00;;;;;;5017324;28;19909;-72
2022/06/08 01:32:47;;;;;;;;;;;21.70;71.80;;;;;;5017305;28;19909;-72
2022/06/08 01:35:31;;;;;;;;;;;22.00;71.60;;;;;;5017499;28;19916;-72
2022/06/08 01:38:12;;;;;;;;;;;22.00;71.00;;;;;;5013619;28;19916;-73
2022/06/08 01:40:38;;;;;;;;;;;22.00;70.90;;;;;;5015742;28;19971;-72
2022/06/08 01:43:06;;;;;;;;;;;22.10;71.30;;;;;;5016189;28;19944;-72
2022/06/08 01:45:37;;;;;;;;;;;22.10;70.80;;;;;;5016599;28;19925;-72
2022/06/08 01:48:10;;;;;;;;;;;22.10;70.70;;;;;;5015324;28;19956;-73
2022/06/08 01:50:51;;;;;;;;;;;22.10;71.30;;;;;;5016931;28;20393;-73
2022/06/08 01:53:16;;;;;;;;;;;22.20;71.60;;;;;;5015574;28;19913;-73
2022/06/08 01:55:50;;;;;;;;;;;22.10;72.50;;;;;;5015525;28;19975;-72
2022/06/08 01:58:18;;;;;;;;;;;22.00;72.50;;;;;;5010826;28;19939;-72
2022/06/08 02:00:48;;;;;;;;;;;21.80;72.50;;;;;;5014200;28;19932;-73
2022/06/08 02:03:19;;;;;;;;;;;22.00;72.10;;;;;;5015712;28;20274;-72
2022/06/08 02:05:45;;;;;;;;;;;22.00;72.10;;;;;;5016560;28;20409;-72
2022/06/08 02:08:19;;;;;;;;;;;22.00;72.20;;;;;;5015190;28;19906;-73
2022/06/08 02:10:48;;;;;;;;;;;22.00;71.90;;;;;;4999355;28;19909;-72
2022/06/08 02:13:22;;;;;;;;;;;22.10;72.00;;;;;;5010146;28;20325;-72
2022/06/08 02:15:50;;;;;;;;;;;22.10;72.20;;;;;;5014802;28;20329;-71
2022/06/08 02:18:19;;;;;;;;;;;22.00;72.50;;;;;;5014884;28;19917;-72
2022/06/08 02:20:54;;;;;;;;;;;22.00;72.80;;;;;;5014790;28;19917;-72
2022/06/08 02:23:26;;;;;;;;;;;22.00;73.10;;;;;;5015092;28;19913;-72
2022/06/08 02:25:55;;;;;;;;;;;21.90;72.40;;;;;;5014841;28;19993;-72
2022/06/08 02:28:28;;;;;;;;;;;21.90;72.70;;;;;;5014105;28;19960;-72
2022/06/08 02:30:56;;;;;;;;;;;22.00;72.40;;;;;;5014144;28;20367;-72
2022/06/08 02:36:15;;;;;;;;;;;22.00;72.80;;;;;;5016367;28;20389;-72
2022/06/08 02:38:43;;;;;;;;;;;22.00;72.60;;;;;;5014375;28;19924;-72
2022/06/08 02:41:09;;;;;;;;;;;21.90;72.60;;;;;;5015833;28;19993;-72
2022/06/08 02:43:39;;;;;;;;;;;21.90;72.70;;;;;;5014316;28;19910;-73
2022/06/08 02:46:05;;;;;;;;;;;21.90;72.20;;;;;;5013579;28;19987;-72
2022/06/08 02:48:32;;;;;;;;;;;21.90;72.50;;;;;;5014492;28;20410;-72
2022/06/08 02:50:58;;;;;;;;;;;21.70;73.20;;;;;;5015735;28;20328;-72
2022/06/08 02:53:26;;;;;;;;;;;21.50;73.70;;;;;;5015767;28;20000;-71
2022/06/08 02:56:10;;;;;;;;;;;21.60;73.70;;;;;;5015848;28;19971;-72
2022/06/08 02:58:53;;;;;;;;;;;21.50;73.20;;;;;;5014122;28;19920;-71
2022/06/08 03:01:22;;;;;;;;;;;21.70;73.60;;;;;;5009714;28;19932;-71
2022/06/08 03:03:50;;;;;;;;;;;21.70;73.20;;;;;;5013692;28;20438;-71
2022/06/08 03:06:18;;;;;;;;;;;21.60;74.80;;;;;;5015322;28;19935;-72
2022/06/08 03:08:49;;;;;;;;;;;21.40;75.30;;;;;;5015364;28;19963;-73
2022/06/08 03:11:16;;;;;;;;;;;21.30;75.40;;;;;;5014217;28;19917;-72
2022/06/08 03:13:48;;;;;;;;;;;21.10;75.70;;;;;;5014234;28;19913;-72
2022/06/08 03:16:25;;;;;;;;;;;21.20;76.30;;;;;;5009239;28;19932;-72
2022/06/08 03:18:51;;;;;;;;;;;21.20;75.60;;;;;;5014629;28;20000;-72
2022/06/08 03:21:17;;;;;;;;;;;21.20;75.70;;;;;;5015241;28;19921;-73
2022/06/08 03:23:42;;;;;;;;;;;21.40;75.10;;;;;;5012551;28;20397;-72
2022/06/08 03:26:08;;;;;;;;;;;21.30;75.00;;;;;;5013452;28;20004;-72
2022/06/08 03:28:33;;;;;;;;;;;21.30;75.00;;;;;;5013182;28;19952;-72
2022/06/08 03:30:59;;;;;;;;;;;21.40;75.00;;;;;;5014825;28;19909;-72
2022/06/08 03:33:25;;;;;;;;;;;21.50;74.40;;;;;;5015469;28;19959;-72
2022/06/08 03:35:50;;;;;;;;;;;21.40;74.80;;;;;;5015105;28;19905;-73
2022/06/08 03:38:16;;;;;;;;;;;21.60;74.50;;;;;;5013443;28;19953;-73
2022/06/08 03:40:41;;;;;;;;;;;21.60;74.40;;;;;;5013242;28;19913;-73
2022/06/08 03:43:07;;;;;;;;;;;21.60;75.20;;;;;;5012067;28;19914;-73
2022/06/08 03:45:38;;;;;;;;;;;21.70;75.30;;;;;;5013618;28;19913;-72
2022/06/08 03:48:05;;;;;;;;;;;21.70;75.40;;;;;;5013474;28;19917;-73
2022/06/08 03:50:31;;;;;;;;;;;21.60;75.50;;;;;;5013488;28;19913;-73
2022/06/08 03:52:58;;;;;;;;;;;21.50;75.80;;;;;;5012935;28;19913;-73
2022/06/08 03:55:25;;;;;;;;;;;21.30;76.40;;;;;;5012421;28;20263;-73
2022/06/08 03:57:51;;;;;;;;;;;21.20;76.80;;;;;;5013518;28;19916;-73
2022/06/08 04:00:18;;;;;;;;;;;21.10;77.50;;;;;;5013158;28;19921;-73
2022/06/08 04:02:45;;;;;;;;;;;21.10;77.70;;;;;;5014775;28;19909;-73
2022/06/08 04:05:10;;;;;;;;;;;21.10;77.00;;;;;;5014140;28;19909;-73
2022/06/08 04:07:36;;;;;;;;;;;21.30;77.40;;;;;;5012796;28;20008;-73
2022/06/08 04:10:02;;;;;;;;;;;21.30;76.50;;;;;;5014301;28;19941;-73
2022/06/08 04:12:28;;;;;;;;;;;21.20;76.60;;;;;;5014471;28;19915;-73
2022/06/08 04:14:53;;;;;;;;;;;21.30;76.60;;;;;;5014650;28;19910;-73
2022/06/08 04:17:19;;;;;;;;;;;21.30;76.30;;;;;;5014272;28;19909;-72
2022/06/08 04:19:47;;;;;;;;;;;21.30;76.60;;;;;;5008110;28;19924;-73
2022/06/08 04:22:14;;;;;;;;;;;21.40;76.50;;;;;;5008042;28;19914;-73
2022/06/08 04:24:39;;;;;;;;;;;21.40;76.50;;;;;;5014421;28;19975;-73
2022/06/08 04:27:05;;;;;;;;;;;21.40;76.10;;;;;;5013117;28;20378;-73
2022/06/08 04:29:31;;;;;;;;;;;21.50;76.40;;;;;;5013153;28;19909;-73
2022/06/08 04:31:56;;;;;;;;;;;21.50;76.60;;;;;;5013491;28;19920;-73
2022/06/08 04:34:22;;;;;;;;;;;21.50;76.70;;;;;;5011886;28;19945;-73
2022/06/08 04:36:47;;;;;;;;;;;21.50;76.60;;;;;;5011543;28;20333;-73
2022/06/08 04:39:14;;;;;;;;;;;21.50;76.30;;;;;;5014333;28;19924;-73
2022/06/08 04:41:39;;;;;;;;;;;21.60;75.80;;;;;;5014190;28;20279;-73
2022/06/08 04:44:05;;;;;;;;;;;21.50;75.80;;;;;;5014445;28;19909;-73
2022/06/08 04:46:31;;;;;;;;;;;21.60;75.80;;;;;;5012248;28;19973;-73
2022/06/08 04:48:57;;;;;;;;;;;21.50;75.10;;;;;;5014149;28;20446;-72
2022/06/08 04:51:22;;;;;;;;;;;21.50;74.50;;;;;;5014000;28;19905;-71
2022/06/08 04:53:48;;;;;;;;;;;21.60;74.90;;;;;;5015751;28;20306;-72
2022/06/08 04:56:14;;;;;;;;;;;21.70;74.60;;;;;;5017966;28;19905;-71
2022/06/08 04:58:40;;;;;;;;;;;21.60;74.80;;;;;;5016269;28;20027;-72
2022/06/08 05:01:06;;;;;;;;;;;21.60;75.00;;;;;;5015524;28;19921;-74
2022/06/08 05:03:32;;;;;;;;;;;21.50;75.90;;;;;;5014755;28;19909;-75
2022/06/08 05:05:58;;;;;;;;;;;21.50;75.70;;;;;;5017124;28;19969;-74
2022/06/08 05:08:24;;;;;;;;;;;21.60;75.40;;;;;;5016689;28;19909;-73
2022/06/08 05:10:50;;;;;;;;;;;21.60;75.90;;;;;;5017760;28;19909;-75
2022/06/08 05:13:16;;;;;;;;;;;21.60;77.80;;;;;;5015821;28;19906;-74
2022/06/08 05:15:43;;;;;;;;;;;21.30;79.80;;;;;;5016245;28;20427;-74
2022/06/08 05:18:09;;;;;;;;;;;21.10;80.70;;;;;;5016109;28;20008;-74
2022/06/08 05:20:38;;;;;;;;;;;21.10;81.50;;;;;;5016573;28;19917;-73
2022/06/08 05:23:04;;;;;;;;;;;21.20;81.40;;;;;;5016745;28;19913;-74
2022/06/08 05:25:31;;;;;;;;;;;21.20;81.40;;;;;;5016020;28;19952;-74
2022/06/08 05:27:57;;;;;;;;;;;21.20;81.20;;;;;;5014068;28;19975;-74
2022/06/08 05:30:23;;;;;;;;;;;21.30;81.60;;;;;;5015760;28;19913;-74
2022/06/08 05:32:48;;;;;;;;;;;21.30;81.40;;;;;;5015322;28;20346;-75
2022/06/08 05:35:14;;;;;;;;;;;21.20;81.10;;;;;;5016817;28;19917;-74
2022/06/08 05:37:40;;;;;;;;;;;21.20;81.00;;;;;;5015257;28;19913;-74
2022/06/08 05:40:06;;;;;;;;;;;21.30;80.50;;;;;;5015195;28;19913;-74
2022/06/08 05:42:32;;;;;;;;;;;21.30;80.40;;;;;;5012370;28;19943;-74
2022/06/08 05:44:57;;;;;;;;;;;21.30;80.60;;;;;;5007909;28;19910;-74
2022/06/08 05:47:24;;;;;;;;;;;21.40;81.10;;;;;;5007952;28;19909;-74
2022/06/08 05:49:49;;;;;;;;;;;21.40;80.80;;;;;;5016985;28;19988;-74
2022/06/08 05:52:17;;;;;;;;;;;21.30;81.60;;;;;;5004482;28;19992;-75
2022/06/08 05:54:43;;;;;;;;;;;21.40;81.30;;;;;;5014760;28;19924;-74
2022/06/08 05:57:09;;;;;;;;;;;21.50;80.80;;;;;;5016160;28;19914;-74
2022/06/08 05:59:34;;;;;;;;;;;21.50;79.80;;;;;;5015260;28;19921;-74
2022/06/08 06:02:00;;;;;;;;;;;21.50;80.80;;;;;;5014301;28;19909;-74
2022/06/08 06:04:25;;;;;;;;;;;21.40;80.60;;;;;;5013798;28;19910;-74
2022/06/08 06:06:51;;;;;;;;;;;21.50;81.00;;;;;;5014504;28;19916;-74
2022/06/08 06:09:18;;;;;;;;;;;21.40;81.90;;;;;;5014288;28;19917;-73
2022/06/08 06:11:44;;;;;;;;;;;21.40;83.00;;;;;;5016351;28;19933;-73
2022/06/08 06:14:10;;;;;;;;;;;21.40;82.70;;;;;;5016603;28;19917;-74
2022/06/08 06:16:35;;;;;;;;;;;21.30;82.10;;;;;;5014392;28;19905;-74
2022/06/08 06:19:01;;;;;;;;;;;21.50;81.80;;;;;;5015186;28;19917;-74
2022/06/08 06:21:27;;;;;;;;;;;21.50;82.70;;;;;;5013237;28;19918;-74
2022/06/08 06:23:53;;;;;;;;;;;21.40;83.40;;;;;;5015905;28;19964;-73
2022/06/08 06:26:18;;;;;;;;;;;21.40;83.20;;;;;;5013943;28;19913;-74
2022/06/08 06:28:44;;;;;;;;;;;21.40;83.20;;;;;;5008179;28;19910;-74
2022/06/08 06:31:14;;;;;;;;;;;21.40;83.30;;;;;;5015487;28;19944;-73
2022/06/08 06:33:40;;;;;;;;;;;21.50;83.10;;;;;;5009432;28;20290;-73
2022/06/08 06:36:05;;;;;;;;;;;21.50;82.20;;;;;;5008838;28;19917;-74
2022/06/08 06:38:31;;;;;;;;;;;21.60;81.90;;;;;;5010059;28;20321;-74
2022/06/08 06:40:57;;;;;;;;;;;21.70;81.60;;;;;;4999944;28;19914;-74
2022/06/08 06:43:22;;;;;;;;;;;21.70;82.20;;;;;;5010240;28;19916;-74
2022/06/08 06:45:48;;;;;;;;;;;21.70;80.80;;;;;;5010308;28;19920;-74
2022/06/08 06:48:13;;;;;;;;;;;21.70;80.70;;;;;;5008603;28;19909;-75
2022/06/08 06:50:39;;;;;;;;;;;21.70;81.30;;;;;;5009080;28;20271;-74
2022/06/08 06:53:05;;;;;;;;;;;21.70;81.50;;;;;;5010442;28;19956;-73
2022/06/08 06:55:31;;;;;;;;;;;21.80;80.20;;;;;;5011139;28;19905;-74
2022/06/08 06:57:57;;;;;;;;;;;21.90;81.20;;;;;;5012011;28;19916;-74
2022/06/08 07:00:23;;;;;;;;;;;21.90;81.00;;;;;;5009942;28;19917;-74
2022/06/08 07:02:49;;;;;;;;;;;21.90;82.00;;;;;;5010284;28;19915;-73
2022/06/08 07:05:16;;;;;;;;;;;22.00;81.70;;;;;;5010003;28;20004;-74
2022/06/08 07:07:41;;;;;;;;;;;22.10;81.90;;;;;;5008464;28;19963;-74
2022/06/08 07:10:07;;;;;;;;;;;22.00;80.10;;;;;;5011053;28;19995;-74
2022/06/08 07:12:32;;;;;;;;;;;22.00;81.20;;;;;;5008051;28;19909;-73
2022/06/08 07:14:58;;;;;;;;;;;22.20;81.10;;;;;;5006991;28;19913;-73
2022/06/08 07:17:23;;;;;;;;;;;22.30;81.00;;;;;;5008579;28;20462;-74
2022/06/08 07:19:49;;;;;;;;;;;22.30;80.30;;;;;;5009213;28;19920;-72
2022/06/08 07:22:15;;;;;;;;;;;22.40;80.70;;;;;;5017020;28;19909;-74
2022/06/08 07:24:41;;;;;;;;;;;22.40;80.50;;;;;;5010037;28;19921;-74
2022/06/08 07:27:07;;;;;;;;;;;22.40;79.60;;;;;;5009455;28;19917;-74
2022/06/08 07:29:33;;;;;;;;;;;22.30;79.90;;;;;;5007484;28;20337;-74
2022/06/08 07:31:59;;;;;;;;;;;22.40;80.30;;;;;;5005360;28;19914;-74
2022/06/08 07:34:24;;;;;;;;;;;22.50;79.70;;;;;;5008459;28;20682;-74
2022/06/08 07:36:50;;;;;;;;;;;22.40;79.70;;;;;;5009702;28;19920;-74
2022/06/08 07:39:17;;;;;;;;;;;22.50;79.90;;;;;;5008827;28;20294;-75
2022/06/08 07:41:43;;;;;;;;;;;22.40;79.60;;;;;;5023546;28;20374;-74
2022/06/08 07:44:10;;;;;;;;;;;22.40;79.30;;;;;;5009183;28;19913;-74
2022/06/08 07:46:35;;;;;;;;;;;22.50;79.80;;;;;;5009959;28;19948;-74
2022/06/08 07:51:46;;;;;;;;;;;22.70;78.20;;;;;;5011001;28;20425;-74
2022/06/08 07:54:11;;;;;;;;;;;22.70;78.30;;;;;;5009276;28;19917;-74
2022/06/08 07:56:37;;;;;;;;;;;22.80;78.10;;;;;;5010039;28;20289;-74
2022/06/08 07:59:03;;;;;;;;;;;22.80;77.90;;;;;;5009813;28;19913;-74
2022/06/08 08:01:28;;;;;;;;;;;22.80;77.30;;;;;;5009721;28;19910;-74
2022/06/08 08:03:54;;;;;;;;;;;22.90;77.00;;;;;;5011220;28;19910;-75
2022/06/08 08:06:20;;;;;;;;;;;22.90;77.70;;;;;;5008199;28;19913;-74
2022/06/08 08:08:45;;;;;;;;;;;23.00;77.20;;;;;;5009894;28;20286;-74
2022/06/08 08:11:11;;;;;;;;;;;23.10;77.30;;;;;;5007709;28;19964;-74
2022/06/08 08:13:37;;;;;;;;;;;23.10;76.20;;;;;;5008929;28;19955;-75
2022/06/08 08:16:03;;;;;;;;;;;23.10;76.70;;;;;;5011644;28;20351;-75
2022/06/08 08:18:29;;;;;;;;;;;23.10;75.80;;;;;;5005345;28;19940;-75
2022/06/08 08:20:55;;;;;;;;;;;23.20;75.70;;;;;;5007301;28;19917;-74
2022/06/08 08:23:20;;;;;;;;;;;23.20;75.30;;;;;;5009244;28;19963;-75
2022/06/08 08:25:46;;;;;;;;;;;23.40;76.20;;;;;;5008383;28;20020;-75
2022/06/08 08:28:11;;;;;;;;;;;23.50;75.10;;;;;;5014292;28;19916;-74
2022/06/08 08:30:37;;;;;;;;;;;23.60;74.80;;;;;;5011607;28;19956;-74
2022/06/08 08:33:03;;;;;;;;;;;23.60;74.20;;;;;;5010901;28;19910;-75
2022/06/08 08:35:29;;;;;;;;;;;23.50;74.10;;;;;;5011014;28;19952;-75
2022/06/08 08:37:55;;;;;;;;;;;23.60;74.90;;;;;;5011471;28;20008;-70
2022/06/08 08:40:21;;;;;;;;;;;23.80;74.60;;;;;;5014798;28;19921;-73
2022/06/08 08:42:46;;;;;;;;;;;23.80;72.70;;;;;;5012294;28;19916;-77
2022/06/08 08:45:13;;;;;;;;;;;23.90;72.10;;;;;;5012755;28;19910;-78
2022/06/08 08:47:45;;;;;;;;;;;23.80;72.90;;;;;;5010971;28;19917;-77
2022/06/08 08:50:13;;;;;;;;;;;23.80;72.80;;;;;;5007923;28;20401;-77
2022/06/08 08:52:39;;;;;;;;;;;23.90;73.50;;;;;;5012669;28;19964;-77
2022/06/08 08:55:28;;;;;;;;;;;23.80;73.00;;;;;;5013688;28;19914;-77
2022/06/08 08:58:14;;;;;;;;;;;23.80;73.00;;;;;;5011400;28;20017;-77
2022/06/08 09:00:41;;;;;;;;;;;24.10;72.50;;;;;;5009730;28;20420;-75
2022/06/08 09:03:17;;;;;;;;;;;24.30;72.20;;;;;;5012564;28;20327;-73
2022/06/08 09:05:44;;;;;;;;;;;24.50;71.10;;;;;;5010723;28;20263;-73
2022/06/08 09:08:10;;;;;;;;;;;24.60;70.20;;;;;;5010840;28;19916;-73
2022/06/08 09:10:36;;;;;;;;;;;24.80;69.60;;;;;;5011946;28;19923;-73
2022/06/08 09:13:05;;;;;;;;;;;25.00;70.10;;;;;;5013300;28;20321;-73
2022/06/08 09:15:42;;;;;;;;;;;25.10;69.80;;;;;;5012068;28;20000;-73
2022/06/08 09:18:16;;;;;;;;;;;25.00;69.30;;;;;;5012261;28;20445;-73
2022/06/08 09:20:42;;;;;;;;;;;24.90;69.50;;;;;;5010602;28;20299;-73
2022/06/08 09:23:25;;;;;;;;;;;25.00;67.90;;;;;;5012208;28;19956;-73
2022/06/08 09:26:01;;;;;;;;;;;25.00;67.60;;;;;;5006110;28;19949;-73
2022/06/08 09:28:28;;;;;;;;;;;24.90;67.70;;;;;;5012549;28;19909;-73
2022/06/08 09:30:54;;;;;;;;;;;24.90;67.70;;;;;;5012749;28;19917;-73
2022/06/08 09:33:28;;;;;;;;;;;24.80;67.50;;;;;;5011911;28;19909;-73
2022/06/08 09:35:58;;;;;;;;;;;24.90;67.50;;;;;;5011788;28;19916;-73
2022/06/08 09:38:26;;;;;;;;;;;24.80;67.00;;;;;;5008710;28;19916;-73
2022/06/08 09:40:58;;;;;;;;;;;24.80;67.20;;;;;;5009395;28;19909;-73
2022/06/08 09:43:41;;;;;;;;;;;24.80;66.00;;;;;;5013555;28;19909;-73
2022/06/08 09:46:10;;;;;;;;;;;24.70;66.60;;;;;;5013318;28;19910;-73
2022/06/08 09:51:35;;;;;;;;;;;24.60;66.20;;;;;;5011158;28;20334;-72
2022/06/08 09:54:01;;;;;;;;;;;24.60;66.80;;;;;;5010470;28;19916;-71
2022/06/08 09:56:29;;;;;;;;;;;24.50;67.30;;;;;;5009899;28;19909;-72
2022/06/08 09:58:55;;;;;;;;;;;24.50;66.40;;;;;;5010605;28;19976;-73
2022/06/08 10:01:26;;;;;;;;;;;24.40;66.50;;;;;;5012575;28;19975;-74
2022/06/08 10:04:10;;;;;;;;;;;24.30;66.20;;;;;;5012894;28;19916;-74
2022/06/08 10:06:55;;;;;;;;;;;24.40;68.00;;;;;;5011701;28;19909;-75
2022/06/08 10:09:21;;;;;;;;;;;24.40;68.20;;;;;;5006226;28;19913;-73
2022/06/08 10:12:01;;;;;;;;;;;24.30;67.80;;;;;;5010000;28;20003;-74
2022/06/08 10:14:33;;;;;;;;;;;24.40;68.70;;;;;;5009378;28;19917;-74
2022/06/08 10:17:10;;;;;;;;;;;24.30;69.00;;;;;;5024642;28;20064;-73
2022/06/08 10:19:58;;;;;;;;;;;24.30;68.30;;;;;;5011218;28;20008;-73
2022/06/08 10:22:27;;;;;;;;;;;24.30;69.40;;;;;;4986514;28;20013;-73
2022/06/08 10:24:58;;;;;;;;;;;24.30;69.30;;;;;;4979028;28;19910;-73
2022/06/08 10:27:28;;;;;;;;;;;24.40;68.60;;;;;;4961894;28;19964;-73
2022/06/08 10:30:23;;;;;;;;;;;24.40;68.40;;;;;;4976861;28;20513;-73
2022/06/08 10:32:52;;;;;;;;;;;24.50;68.20;;;;;;4977139;28;19984;-70
2022/06/08 10:35:17;;;;;;;;;;;24.60;69.00;;;;;;4974607;28;19910;-71
2022/06/08 10:37:43;;;;;;;;;;;24.70;70.00;;;;;;4984199;28;19918;-71
2022/06/08 10:40:13;;;;;;;;;;;24.70;68.60;;;;;;4976724;28;19943;-71
2022/06/08 10:42:41;;;;;;;;;;;24.80;68.70;;;;;;4979846;28;19921;-71
2022/06/08 10:45:26;;;;;;;;;;;24.80;68.40;;;;;;4979171;28;19917;-73
2022/06/08 10:47:58;;;;;;;;;;;24.70;67.80;;;;;;4981679;28;19914;-73
2022/06/08 10:50:28;;;;;;;;;;;24.70;68.80;;;;;;4981241;28;19957;-73
2022/06/08 10:54:53;;;;;;;;;;;24.70;69.90;;;;;;4987548;28;19934;-74
2022/06/08 10:55:41;;;;;;;;;;;24.60;68.80;;;;;;4971257;28;19906;-73
2022/06/08 10:58:17;;;;;;;;;;;24.60;69.30;;;;;;4982587;28;19909;-73
2022/06/08 11:00:47;;;;;;;;;;;24.70;69.60;;;;;;5007718;28;19917;-73
2022/06/08 11:03:33;;;;;;;;;;;24.70;69.90;;;;;;5010373;28;19936;-74
2022/06/08 11:05:58;;;;;;;;;;;24.70;71.90;;;;;;5005907;28;19915;-73
2022/06/08 11:08:24;;;;;;;;;;;24.70;71.60;;;;;;5009333;28;19913;-75
2022/06/08 11:10:53;;;;;;;;;;;24.70;70.10;;;;;;5008317;28;19916;-72
2022/06/08 11:13:25;;;;;;;;;;;24.70;70.30;;;;;;5008769;28;19982;-72
2022/06/08 11:15:53;;;;;;;;;;;24.70;69.50;;;;;;5010614;28;20000;-72
2022/06/08 11:18:37;;;;;;;;;;;24.60;69.30;;;;;;5008146;28;20353;-72
2022/06/08 11:21:17;;;;;;;;;;;24.60;68.70;;;;;;5006698;28;19924;-74
2022/06/08 11:24:00;;;;;;;;;;;24.70;68.80;;;;;;5008884;28;19914;-79
2022/06/08 11:26:37;;;;;;;;;;;24.80;69.20;;;;;;5008613;28;19913;-74
2022/06/08 11:29:18;;;;;;;;;;;24.90;68.40;;;;;;5007944;28;19914;-75
2022/06/08 11:31:43;;;;;;;;;;;25.00;69.10;;;;;;5009704;28;19924;-77
2022/06/08 11:34:12;;;;;;;;;;;25.00;71.70;;;;;;5012065;28;20337;-76
2022/06/08 11:36:50;;;;;;;;;;;25.10;73.50;;;;;;5003742;28;19909;-74
2022/06/08 11:39:34;;;;;;;;;;;25.10;72.40;;;;;;5001828;28;19925;-73
2022/06/08 11:42:08;;;;;;;;;;;25.20;70.50;;;;;;5016656;28;19917;-75
2022/06/08 11:44:34;;;;;;;;;;;25.40;70.50;;;;;;5001149;28;20405;-75
2022/06/08 11:47:13;;;;;;;;;;;25.50;69.90;;;;;;4994440;28;19920;-75
2022/06/08 11:49:41;;;;;;;;;;;25.60;68.70;;;;;;4991160;28;20369;-73
2022/06/08 11:52:23;;;;;;;;;;;25.70;68.20;;;;;;5006711;28;19968;-75
2022/06/08 11:55:08;;;;;;;;;;;25.80;68.60;;;;;;5004749;28;19968;-74
2022/06/08 11:57:34;;;;;;;;;;;25.80;70.10;;;;;;4994347;28;20028;-74
2022/06/08 12:00:03;;;;;;;;;;;26.00;69.40;;;;;;4993994;28;20457;-75
2022/06/08 12:02:36;;;;;;;;;;;26.00;68.40;;;;;;4999912;28;19914;-74
2022/06/08 12:05:02;;;;;;;;;;;26.00;68.70;;;;;;4990761;28;20367;-73
2022/06/08 12:07:50;;;;;;;;;;;26.10;69.00;;;;;;5007075;28;20314;-75
2022/06/08 12:10:20;;;;;;;;;;;26.10;68.90;;;;;;4993689;28;20409;-74
2022/06/08 12:12:48;;;;;;;;;;;26.20;68.60;;;;;;4998838;28;19917;-74
2022/06/08 12:15:32;;;;;;;;;;;26.20;69.10;;;;;;5000317;28;20047;-75
2022/06/08 12:18:07;;;;;;;;;;;26.30;70.40;;;;;;5002236;28;20393;-72
2022/06/08 12:20:37;;;;;;;;;;;26.20;71.50;;;;;;5001754;28;19952;-78
2022/06/08 12:23:03;;;;;;;;;;;26.20;72.40;;;;;;5007119;28;20405;-70
2022/06/08 12:25:30;;;;;;;;;;;26.30;73.30;;;;;;5001972;28;19913;-70
2022/06/08 12:27:57;;;;;;;;;;;26.60;72.00;;;;;;5002551;28;19909;-68
2022/06/08 12:30:26;;;;;;;;;;;26.80;71.70;;;;;;4997033;28;19913;-69
2022/06/08 12:32:52;;;;;;;;;;;27.00;72.40;;;;;;5002632;28;19949;-69
2022/06/08 12:35:22;;;;;;;;;;;27.00;73.00;;;;;;4993902;28;19923;-70
2022/06/08 12:37:48;;;;;;;;;;;27.20;72.10;;;;;;5003341;28;19916;-70
2022/06/08 12:40:16;;;;;;;;;;;27.30;73.50;;;;;;5006678;28;19914;-70
2022/06/08 12:42:50;;;;;;;;;;;27.10;73.50;;;;;;4996789;28;19910;-70
2022/06/08 12:45:27;;;;;;;;;;;26.90;73.80;;;;;;5003530;28;19940;-70
2022/06/08 12:47:53;;;;;;;;;;;27.10;74.80;;;;;;5002106;28;19916;-69
2022/06/08 12:50:23;;;;;;;;;;;27.10;74.40;;;;;;5014568;28;19910;-70
2022/06/08 12:52:49;;;;;;;;;;;27.30;74.60;;;;;;4992684;28;20432;-70
2022/06/08 12:55:17;;;;;;;;;;;27.50;73.20;;;;;;5010029;28;20012;-70
2022/06/08 12:57:44;;;;;;;;;;;27.60;73.60;;;;;;4996925;28;20428;-69
2022/06/08 13:00:20;;;;;;;;;;;27.60;72.90;;;;;;4995790;28;19944;-70
2022/06/08 13:02:46;;;;;;;;;;;27.70;72.80;;;;;;5000605;28;20362;-69
2022/06/08 13:05:18;;;;;;;;;;;27.70;72.20;;;;;;5005138;28;19951;-70
2022/06/08 13:07:44;;;;;;;;;;;27.70;71.30;;;;;;5007166;28;20039;-69
2022/06/08 13:10:09;;;;;;;;;;;27.70;71.70;;;;;;5009220;28;20421;-70
2022/06/08 13:12:47;;;;;;;;;;;27.80;70.90;;;;;;5006755;28;19917;-69
2022/06/08 13:15:19;;;;;;;;;;;27.80;70.60;;;;;;5010662;28;19909;-69
2022/06/08 13:17:44;;;;;;;;;;;27.70;71.30;;;;;;5008712;28;20071;-71
2022/06/08 13:20:21;;;;;;;;;;;28.00;72.40;;;;;;5021938;28;20113;-71
2022/06/08 13:22:47;;;;;;;;;;;28.10;71.00;;;;;;5011777;28;19910;-71
2022/06/08 13:25:13;;;;;;;;;;;28.00;71.20;;;;;;5014332;28;19910;-71
2022/06/08 13:27:39;;;;;;;;;;;28.10;71.10;;;;;;5011230;28;20323;-71
2022/06/08 13:30:06;;;;;;;;;;;28.30;69.40;;;;;;5010019;28;19996;-71
2022/06/08 13:32:31;;;;;;;;;;;28.30;69.20;;;;;;5010020;28;19949;-70
2022/06/08 13:34:57;;;;;;;;;;;28.30;69.20;;;;;;5010254;28;19968;-73
2022/06/08 13:37:32;;;;;;;;;;;28.30;69.30;;;;;;5013331;28;19905;-71
2022/06/08 13:39:58;;;;;;;;;;;28.30;68.20;;;;;;5014025;28;19924;-71
2022/06/08 13:42:23;;;;;;;;;;;28.10;68.20;;;;;;5010077;28;19913;-71
2022/06/08 13:44:50;;;;;;;;;;;28.10;68.40;;;;;;5009522;28;20610;-71
2022/06/08 13:47:19;;;;;;;;;;;28.20;68.40;;;;;;5009268;28;19936;-71
2022/06/08 13:49:48;;;;;;;;;;;28.40;68.90;;;;;;5011693;28;20008;-71
2022/06/08 13:52:15;;;;;;;;;;;28.50;68.80;;;;;;5017976;28;19912;-72
2022/06/08 13:54:42;;;;;;;;;;;28.60;69.20;;;;;;5010452;28;19910;-72
2022/06/08 13:57:12;;;;;;;;;;;28.50;69.10;;;;;;5009978;28;19909;-71
2022/06/08 13:59:39;;;;;;;;;;;28.80;69.60;;;;;;5009665;28;19921;-71
2022/06/08 14:02:27;;;;;;;;;;;28.90;69.00;;;;;;5011312;28;19909;-71
2022/06/08 14:04:54;;;;;;;;;;;28.70;68.90;;;;;;4990768;28;19910;-72
2022/06/08 14:13:01;;;;;;;;;;;28.10;69.20;;;;;;5013108;28;19997;-71
2022/06/08 14:15:27;;;;;;;;;;;27.90;68.80;;;;;;5009974;28;20329;-71
2022/06/08 14:17:53;;;;;;;;;;;27.70;69.10;;;;;;5009725;28;19996;-71
2022/06/08 14:20:48;;;;;;;;;;;27.60;69.10;;;;;;5010508;28;20375;-73
2022/06/08 14:23:15;;;;;;;;;;;27.70;69.90;;;;;;4990213;28;19918;-73
2022/06/08 14:25:41;;;;;;;;;;;27.60;70.00;;;;;;5012409;28;20390;-71
2022/06/08 14:28:07;;;;;;;;;;;27.60;69.60;;;;;;5010672;28;19916;-71
2022/06/08 14:30:33;;;;;;;;;;;27.50;69.70;;;;;;5009638;28;19905;-71
2022/06/08 14:33:01;;;;;;;;;;;27.60;70.00;;;;;;5011714;28;19996;-71
2022/06/08 14:35:32;;;;;;;;;;;27.60;69.50;;;;;;5012437;28;20326;-72
2022/06/08 14:37:58;;;;;;;;;;;27.40;68.90;;;;;;4998458;28;19918;-71
2022/06/08 14:40:25;;;;;;;;;;;27.40;69.90;;;;;;5013408;28;20392;-71